Time;durP1;ratioP1;P1;durP2;ratioP2;P2;SDS_P1;SDS_P2;PMS_P1;PMS_P2;Temp;Humidity;BMP_temperature;BMP_pressure;BME280_temperature;BME280_humidity;BME280_pressure;Samples;Min_cycle;Max_cycle;Signal;HPM_P1;HPM_P2
2023/10/25 00:01:46;;;;;;;8.20;5.67;;;;;;;8.69;100.00;99559.69;5002274;28;20211;-82
2023/10/25 00:04:13;;;;;;;8.27;5.60;;;;;;;8.65;100.00;99554.72;5022047;28;20234;-81
2023/10/25 00:06:41;;;;;;;6.93;5.97;;;;;;;8.62;100.00;99560.25;5008434;28;20210;-81
2023/10/25 00:09:08;;;;;;;6.33;5.73;;;;;;;8.59;100.00;99566.66;5007358;28;20207;-81
2023/10/25 00:11:34;;;;;;;5.93;5.33;;;;;;;8.56;100.00;99560.72;4998306;28;20203;-79
2023/10/25 00:14:01;;;;;;;7.37;5.77;;;;;;;8.55;100.00;99566.97;5002818;28;20245;-79
2023/10/25 00:16:27;;;;;;;7.20;5.23;;;;;;;8.51;100.00;99555.72;5002624;28;20256;-79
2023/10/25 00:18:54;;;;;;;5.90;4.93;;;;;;;8.51;100.00;99563.69;5007802;28;20207;-79
2023/10/25 00:21:20;;;;;;;8.37;5.73;;;;;;;8.50;100.00;99567.28;5001533;28;20203;-79
2023/10/25 00:23:48;;;;;;;5.80;5.20;;;;;;;8.50;100.00;99559.34;5004146;28;20230;-79
2023/10/25 00:26:15;;;;;;;7.10;5.27;;;;;;;8.58;100.00;99551.69;5003698;28;20214;-79
2023/10/25 00:28:41;;;;;;;6.87;5.50;;;;;;;8.70;100.00;99557.91;5003296;28;20224;-80
2023/10/25 00:31:08;;;;;;;4.23;3.73;;;;;;;8.86;100.00;99560.28;5006620;28;20221;-80
2023/10/25 00:33:34;;;;;;;8.57;4.80;;;;;;;8.91;100.00;99563.44;5009750;28;20314;-79
2023/10/25 00:36:01;;;;;;;7.97;4.43;;;;;;;8.97;100.00;99552.34;5006620;28;20227;-79
2023/10/25 00:38:27;;;;;;;5.50;4.20;;;;;;;9.02;100.00;99567.00;5008187;28;20199;-79
2023/10/25 00:40:55;;;;;;;4.63;3.93;;;;;;;9.11;100.00;99567.28;5010227;28;20199;-80
2023/10/25 00:43:22;;;;;;;4.63;3.00;;;;;;;9.14;100.00;99565.22;5004959;28;20233;-81
2023/10/25 00:46:08;;;;;;;4.47;3.40;;;;;;;9.14;100.00;99565.22;5006361;28;20283;-80
2023/10/25 00:48:36;;;;;;;3.63;3.13;;;;;;;9.17;100.00;99566.81;5005297;28;20586;-81
2023/10/25 00:51:03;;;;;;;5.30;3.47;;;;;;;9.17;100.00;99572.13;5001796;28;20231;-80
2023/10/25 00:53:32;;;;;;;4.77;3.10;;;;;;;9.18;100.00;99568.50;5009447;28;20231;-80
2023/10/25 00:56:01;;;;;;;3.67;3.07;;;;;;;9.18;100.00;99573.81;5006794;28;20238;-78
2023/10/25 00:58:29;;;;;;;5.40;3.07;;;;;;;9.21;100.00;99569.13;5006556;28;20873;-80
2023/10/25 01:00:57;;;;;;;6.23;3.80;;;;;;;9.24;100.00;99568.91;5008598;28;20199;-80
2023/10/25 01:03:23;;;;;;;4.67;3.27;;;;;;;9.27;100.00;99573.13;5006757;28;20223;-81
2023/10/25 01:05:50;;;;;;;5.77;3.50;;;;;;;9.30;100.00;99567.59;5002940;28;20231;-80
2023/10/25 01:08:18;;;;;;;4.70;2.97;;;;;;;9.33;100.00;99570.00;5002710;28;20276;-81
2023/10/25 01:10:45;;;;;;;4.50;3.67;;;;;;;9.33;100.00;99572.66;5005518;28;20210;-79
2023/10/25 01:13:12;;;;;;;3.60;3.30;;;;;;;9.33;100.00;99562.03;5005967;28;20236;-80
2023/10/25 01:15:39;;;;;;;3.70;2.97;;;;;;;9.34;100.00;99558.41;5008774;28;20847;-80
2023/10/25 01:18:05;;;;;;;3.67;3.07;;;;;;;9.34;100.00;99559.25;5005591;28;20207;-80
2023/10/25 01:20:33;;;;;;;5.13;3.40;;;;;;;9.39;100.00;99556.25;5008243;28;20251;-80
2023/10/25 01:23:00;;;;;;;4.60;3.27;;;;;;;9.40;100.00;99552.66;5003163;28;20206;-80
2023/10/25 01:25:27;;;;;;;5.67;2.97;;;;;;;9.37;100.00;99556.38;5002425;28;20200;-81
2023/10/25 01:27:53;;;;;;;5.23;3.03;;;;;;;9.40;100.00;99557.97;5006556;28;20214;-80
2023/10/25 01:30:20;;;;;;;3.90;3.03;;;;;;;9.45;100.00;99561.13;5002160;28;20200;-80
2023/10/25 01:32:46;;;;;;;3.87;3.47;;;;;;;9.48;100.00;99555.59;4997792;28;20655;-80
2023/10/25 01:35:13;;;;;;;3.33;2.43;;;;;;;9.49;100.00;99551.97;5002207;28;20235;-80
2023/10/25 01:37:39;;;;;;;3.63;3.03;;;;;;;9.49;100.00;99551.13;5000376;28;20216;-81
2023/10/25 01:40:08;;;;;;;3.37;2.77;;;;;;;9.50;100.00;99555.44;5003442;28;20214;-80
2023/10/25 01:42:35;;;;;;;4.97;3.10;;;;;;;9.53;100.00;99555.22;5002136;28;20208;-80
2023/10/25 01:45:01;;;;;;;2.90;2.67;;;;;;;9.54;100.00;99556.91;4999227;28;20772;-80
2023/10/25 01:47:28;;;;;;;4.00;2.67;;;;;;;9.50;100.00;99558.94;5007104;28;20214;-81
2023/10/25 01:49:55;;;;;;;6.23;3.07;;;;;;;9.53;100.00;99560.53;5008646;28;20207;-80
2023/10/25 01:52:21;;;;;;;7.17;3.07;;;;;;;9.50;100.00;99550.97;4999485;28;20294;-80
2023/10/25 01:54:50;;;;;;;6.97;3.47;;;;;;;9.51;100.00;99550.00;5003178;28;20862;-80
2023/10/25 01:57:18;;;;;;;4.30;2.80;;;;;;;9.49;100.00;99545.78;5004396;28;20284;-80
2023/10/25 01:59:44;;;;;;;2.90;2.57;;;;;;;9.48;100.00;99544.94;5020333;28;20196;-81
2023/10/25 02:02:11;;;;;;;5.20;3.27;;;;;;;9.45;100.00;99553.16;4999510;28;20211;-80
2023/10/25 02:04:38;;;;;;;4.67;3.27;;;;;;;9.46;100.00;99552.19;5013584;28;20741;-80
2023/10/25 02:07:05;;;;;;;3.57;2.80;;;;;;;9.46;100.00;99549.53;5006293;28;20275;-80
2023/10/25 02:09:31;;;;;;;4.70;3.10;;;;;;;9.44;100.00;99540.81;5000985;28;20207;-80
2023/10/25 02:11:58;;;;;;;5.70;2.97;;;;;;;9.45;100.00;99547.84;5000484;28;20211;-80
2023/10/25 02:14:26;;;;;;;3.67;2.77;;;;;;;9.42;100.00;99542.75;4999096;28;20250;-80
2023/10/25 02:16:53;;;;;;;3.00;2.70;;;;;;;9.42;100.00;99545.41;5006555;28;20203;-80
2023/10/25 02:19:20;;;;;;;3.13;2.83;;;;;;;9.41;100.00;99535.75;5000406;28;20215;-80
2023/10/25 02:21:46;;;;;;;5.77;2.70;;;;;;;9.40;100.00;99531.38;5026194;28;20203;-80
2023/10/25 02:24:15;;;;;;;5.40;2.93;;;;;;;9.41;100.00;99533.09;5003556;28;20227;-79
2023/10/25 02:26:41;;;;;;;3.03;2.40;;;;;;;9.41;100.00;99533.09;5005709;28;20713;-80
2023/10/25 02:29:08;;;;;;;8.77;3.10;;;;;;;9.43;100.00;99540.94;5001674;28;20216;-80
2023/10/25 02:31:36;;;;;;;4.07;2.43;;;;;;;9.42;100.00;99537.44;5001290;28;20211;-80
2023/10/25 02:34:02;;;;;;;4.00;3.10;;;;;;;9.41;100.00;99538.41;5001684;28;20243;-80
2023/10/25 02:36:30;;;;;;;3.87;2.70;;;;;;;9.40;100.00;99539.34;5001972;28;20228;-80
2023/10/25 02:38:56;;;;;;;4.83;2.50;;;;;;;9.41;100.00;99538.41;5017015;28;20203;-80
2023/10/25 02:41:23;;;;;;;4.40;3.40;;;;;;;9.41;100.00;99533.09;4992935;28;20207;-80
2023/10/25 02:43:51;;;;;;;3.77;2.67;;;;;;;9.43;100.00;99533.81;4997351;28;20219;-80
2023/10/25 02:46:17;;;;;;;3.43;2.93;;;;;;;9.46;100.00;99538.06;5000009;28;20733;-81
2023/10/25 02:48:45;;;;;;;3.20;2.90;;;;;;;9.44;100.00;99535.50;5020438;28;20663;-80
2023/10/25 02:51:12;;;;;;;3.57;2.67;;;;;;;9.42;100.00;99534.78;4999836;28;20238;-80
2023/10/25 02:53:38;;;;;;;3.83;3.10;;;;;;;9.40;100.00;99531.38;5004189;28;20235;-80
2023/10/25 02:56:07;;;;;;;5.63;3.10;;;;;;;9.39;100.00;99527.03;5007152;28;20232;-81
2023/10/25 02:58:35;;;;;;;7.23;3.30;;;;;;;9.41;100.00;99525.09;5004499;28;20727;-80
2023/10/25 03:01:01;;;;;;;6.10;2.67;;;;;;;9.42;100.00;99533.94;5007244;28;20204;-80
2023/10/25 03:03:30;;;;;;;4.50;3.57;;;;;;;9.39;100.00;99525.22;5008486;28;20231;-80
2023/10/25 03:05:58;;;;;;;3.53;2.90;;;;;;;9.38;100.00;99528.00;5012200;28;20210;-79
2023/10/25 03:08:26;;;;;;;3.73;3.00;;;;;;;9.36;100.00;99524.59;4999823;28;20203;-80
2023/10/25 03:10:53;;;;;;;5.50;3.17;;;;;;;9.35;100.00;99518.44;5006436;28;20215;-80
2023/10/25 03:13:19;;;;;;;4.23;2.97;;;;;;;9.33;100.00;99519.53;5007225;28;20706;-80
2023/10/25 03:15:46;;;;;;;5.17;2.90;;;;;;;9.32;100.00;99518.66;4999264;28;20834;-80
2023/10/25 03:18:12;;;;;;;6.00;3.40;;;;;;;9.31;100.00;99510.84;5010412;28;20302;-80
2023/10/25 03:20:38;;;;;;;6.60;3.10;;;;;;;9.30;100.00;99515.31;5006253;28;20204;-80
2023/10/25 03:23:06;;;;;;;6.10;3.23;;;;;;;9.29;100.00;99518.94;5007173;28;20218;-80
2023/10/25 03:25:33;;;;;;;3.83;3.10;;;;;;;9.29;100.00;99523.41;5009681;28;21781;-80
2023/10/25 03:27:59;;;;;;;5.03;2.80;;;;;;;9.26;100.00;99528.94;5004682;28;20204;-80
2023/10/25 03:30:26;;;;;;;3.87;2.67;;;;;;;9.25;100.00;99521.94;5006792;28;20548;-80
2023/10/25 03:32:52;;;;;;;4.83;2.60;;;;;;;9.23;100.00;99527.34;5005790;28;20553;-80
2023/10/25 03:35:19;;;;;;;6.40;3.50;;;;;;;9.21;100.00;99526.63;5004407;28;20312;-80
2023/10/25 03:37:45;;;;;;;5.10;3.20;;;;;;;9.20;100.00;99522.25;5001233;28;20671;-80
2023/10/25 03:40:15;;;;;;;4.40;3.00;;;;;;;9.18;100.00;99521.53;5004673;28;20211;-80
2023/10/25 03:42:41;;;;;;;3.50;2.63;;;;;;;9.18;100.00;99520.69;5007803;28;20211;-80
2023/10/25 03:45:09;;;;;;;3.73;3.13;;;;;;;9.17;100.00;99522.50;5010127;28;20223;-80
2023/10/25 03:47:37;;;;;;;5.87;3.07;;;;;;;9.16;100.00;99520.78;5005190;28;20222;-80
2023/10/25 03:50:04;;;;;;;4.63;2.80;;;;;;;9.16;100.00;99518.13;5003507;28;20224;-80
2023/10/25 03:52:31;;;;;;;3.23;2.50;;;;;;;9.14;100.00;99517.41;5005456;28;20220;-80
2023/10/25 03:54:57;;;;;;;4.20;3.47;;;;;;;9.14;100.00;99500.63;5005287;28;20222;-81
2023/10/25 03:57:26;;;;;;;4.00;2.97;;;;;;;9.12;100.00;99507.88;5004902;28;20207;-80
2023/10/25 03:59:52;;;;;;;5.97;3.60;;;;;;;9.13;100.00;99501.63;5005889;28;20211;-81
2023/10/25 04:02:19;;;;;;;5.43;2.33;;;;;;;9.11;100.00;99493.75;5007868;28;20257;-79
2023/10/25 04:04:45;;;;;;;2.90;2.60;;;;;;;9.11;100.00;99498.22;5007884;28;20223;-80
2023/10/25 04:07:12;;;;;;;5.00;2.67;;;;;;;9.10;100.00;99485.91;5002886;28;20214;-80
2023/10/25 04:09:39;;;;;;;4.07;2.70;;;;;;;9.10;100.00;99492.06;5010646;28;20245;-80
2023/10/25 04:12:08;;;;;;;3.57;2.50;;;;;;;9.10;100.00;99486.75;5003915;28;20223;-80
2023/10/25 04:14:36;;;;;;;2.40;2.20;;;;;;;9.10;100.00;99483.25;5003861;28;20252;-80
2023/10/25 04:17:02;;;;;;;3.57;2.33;;;;;;;9.10;100.00;99480.59;5004388;28;20239;-80
2023/10/25 04:19:29;;;;;;;3.37;2.47;;;;;;;9.10;100.00;99483.25;5004284;28;20214;-80
2023/10/25 04:21:55;;;;;;;2.90;2.27;;;;;;;9.13;100.00;99483.03;5011244;28;20241;-80
2023/10/25 04:24:22;;;;;;;7.20;3.40;;;;;;;9.13;100.00;99485.69;5006158;28;20246;-79
2023/10/25 04:26:48;;;;;;;3.60;2.27;;;;;;;9.13;100.00;99486.53;5005360;28;20200;-79
2023/10/25 04:29:15;;;;;;;3.00;2.00;;;;;;;9.14;100.00;99476.72;5014735;28;20210;-79
2023/10/25 04:31:42;;;;;;;3.63;2.40;;;;;;;9.18;100.00;99472.88;5004335;28;20279;-79
2023/10/25 04:34:09;;;;;;;4.60;2.30;;;;;;;9.20;100.00;99476.25;5019318;28;20231;-79
2023/10/25 04:36:35;;;;;;;2.50;2.27;;;;;;;9.25;100.00;99471.44;5005887;28;20238;-80
2023/10/25 04:39:02;;;;;;;3.27;2.40;;;;;;;9.24;100.00;99467.09;5009937;28;20211;-79
2023/10/25 04:41:28;;;;;;;3.27;2.53;;;;;;;9.31;100.00;99460.38;5004240;28;20204;-80
2023/10/25 04:43:55;;;;;;;8.03;2.90;;;;;;;9.33;100.00;99456.59;5004340;28;20227;-81
2023/10/25 04:46:21;;;;;;;4.67;2.40;;;;;;;9.32;100.00;99459.38;5006312;28;20210;-80
2023/10/25 04:48:49;;;;;;;2.57;1.90;;;;;;;9.32;100.00;99454.06;5003145;28;20204;-81
2023/10/25 04:51:16;;;;;;;3.00;2.00;;;;;;;9.31;100.00;99447.94;5018057;28;20216;-80
2023/10/25 04:53:44;;;;;;;4.13;2.43;;;;;;;9.30;100.00;99463.97;5005133;28;20601;-80
2023/10/25 04:56:10;;;;;;;4.17;2.60;;;;;;;9.30;100.00;99461.31;5004772;28;21036;-80
2023/10/25 04:58:37;;;;;;;4.43;2.10;;;;;;;9.29;100.00;99455.16;5008065;28;20230;-79
2023/10/25 05:01:11;;;;;;;2.93;2.43;;;;;;;9.25;100.00;99456.34;5009709;28;20214;-80
2023/10/25 05:03:38;;;;;;;4.90;2.30;;;;;;;9.21;100.00;99459.34;5014696;28;20277;-78
2023/10/25 05:06:07;;;;;;;4.80;2.67;;;;;;;9.20;100.00;99463.81;5000285;28;20672;-80
2023/10/25 05:08:35;;;;;;;4.87;2.60;;;;;;;9.16;100.00;99464.16;5001869;28;20225;-80
2023/10/25 05:11:05;;;;;;;6.10;2.70;;;;;;;9.14;100.00;99464.28;4997151;28;20204;-80
2023/10/25 05:13:32;;;;;;;2.80;2.43;;;;;;;9.12;100.00;99462.72;5004177;28;20231;-80
2023/10/25 05:15:59;;;;;;;4.83;3.03;;;;;;;9.05;100.00;99468.50;5002008;28;20223;-80
2023/10/25 05:18:26;;;;;;;4.07;3.13;;;;;;;9.01;100.00;99459.06;4997397;28;20207;-80
2023/10/25 05:20:58;;;;;;;4.57;3.50;;;;;;;8.97;100.00;99454.94;5002014;28;20207;-79
2023/10/25 05:23:29;;;;;;;8.93;4.47;;;;;;;8.91;100.00;99468.69;5008340;28;20226;-79
2023/10/25 05:25:56;;;;;;;5.27;4.10;;;;;;;8.88;100.00;99455.66;5005258;28;20549;-81
2023/10/25 05:28:23;;;;;;;5.47;3.73;;;;;;;8.80;100.00;99463.31;5005783;28;20211;-79
2023/10/25 05:30:51;;;;;;;4.67;3.57;;;;;;;8.72;100.00;99451.59;5008348;28;20596;-79
2023/10/25 05:33:20;;;;;;;4.80;3.47;;;;;;;8.59;100.00;99457.00;5015085;28;20233;-81
2023/10/25 05:35:47;;;;;;;4.70;3.67;;;;;;;8.50;100.00;99450.53;5005999;28;20230;-79
2023/10/25 05:38:14;;;;;;;4.90;4.10;;;;;;;8.45;100.00;99457.13;5003017;28;20341;-80
2023/10/25 05:40:42;;;;;;;6.10;4.47;;;;;;;8.40;100.00;99456.66;5012080;28;20226;-79
2023/10/25 05:43:14;;;;;;;6.20;4.93;;;;;;;8.38;100.00;99458.56;5007508;28;20209;-80
2023/10/25 05:45:42;;;;;;;7.63;5.00;;;;;;;8.34;100.00;99450.81;4997082;28;20203;-79
2023/10/25 05:48:11;;;;;;;6.60;4.70;;;;;;;8.31;100.00;99453.66;5009726;28;20836;-79
2023/10/25 05:50:38;;;;;;;6.03;4.93;;;;;;;8.29;100.00;99457.38;5005439;28;20210;-79
2023/10/25 05:53:05;;;;;;;6.10;4.67;;;;;;;8.23;100.00;99463.16;5005761;28;20251;-79
2023/10/25 05:55:32;;;;;;;7.37;5.77;;;;;;;8.16;100.00;99456.59;5002997;28;20195;-79
2023/10/25 05:58:00;;;;;;;10.97;5.37;;;;;;;8.11;100.00;99453.41;5003646;28;20604;-78
2023/10/25 06:00:27;;;;;;;7.03;4.97;;;;;;;8.06;100.00;99452.91;5005034;28;20678;-79
2023/10/25 06:02:56;;;;;;;7.37;6.23;;;;;;;8.01;100.00;99451.44;5002806;28;20215;-80
2023/10/25 06:05:24;;;;;;;8.87;6.80;;;;;;;7.99;100.00;99448.03;5000732;28;20275;-80
2023/10/25 06:07:52;;;;;;;8.50;6.70;;;;;;;7.97;100.00;99451.75;5004120;28;20200;-81
2023/10/25 06:10:19;;;;;;;9.43;7.10;;;;;;;7.97;100.00;99451.75;5007828;28;20216;-79
2023/10/25 06:12:46;;;;;;;7.97;6.73;;;;;;;7.98;100.00;99454.31;5003343;28;20206;-79
2023/10/25 06:15:14;;;;;;;9.30;6.87;;;;;;;7.99;100.00;99456.00;5006759;28;20236;-80
2023/10/25 06:17:41;;;;;;;8.50;6.83;;;;;;;7.97;100.00;99447.31;5005071;28;20234;-79
2023/10/25 06:20:10;;;;;;;8.43;7.07;;;;;;;7.94;100.00;99450.16;5005387;28;20221;-80
2023/10/25 06:22:36;;;;;;;11.37;7.20;;;;;;;7.90;100.00;99450.47;5011358;28;20214;-80
2023/10/25 06:25:05;;;;;;;9.40;7.83;;;;;;;7.88;100.00;99449.78;5018005;28;20227;-80
2023/10/25 06:27:31;;;;;;;10.70;8.57;;;;;;;7.88;100.00;99452.44;5010636;28;20263;-80
2023/10/25 06:29:57;;;;;;;10.10;8.40;;;;;;;7.91;100.00;99468.09;5006761;28;20207;-80
2023/10/25 06:32:25;;;;;;;11.63;8.00;;;;;;;7.93;100.00;99464.38;5004570;28;20199;-80
2023/10/25 06:34:52;;;;;;;9.80;7.93;;;;;;;7.93;100.00;99466.19;5004181;28;20329;-80
2023/10/25 06:37:19;;;;;;;11.77;8.13;;;;;;;7.92;100.00;99460.03;5003383;28;20227;-80
2023/10/25 06:39:46;;;;;;;10.90;7.80;;;;;;;7.92;100.00;99464.47;5004699;28;20207;-80
2023/10/25 06:42:13;;;;;;;12.00;8.27;;;;;;;7.94;100.00;99468.72;5009441;28;20214;-80
2023/10/25 06:44:41;;;;;;;10.17;8.00;;;;;;;7.96;100.00;99469.47;5003438;28;20231;-80
2023/10/25 06:47:09;;;;;;;11.13;7.77;;;;;;;7.98;100.00;99458.75;5006583;28;20248;-80
2023/10/25 06:49:38;;;;;;;12.37;8.87;;;;;;;7.98;100.00;99458.75;5004624;28;20215;-81
2023/10/25 06:52:05;;;;;;;9.97;8.63;;;;;;;8.01;100.00;99458.53;5009718;28;20678;-79
2023/10/25 06:54:32;;;;;;;11.77;8.30;;;;;;;8.09;100.00;99465.94;5004779;28;20229;-79
2023/10/25 06:57:00;;;;;;;12.30;9.33;;;;;;;8.11;100.00;99458.72;5004492;28;20226;-79
2023/10/25 06:59:27;;;;;;;12.00;8.90;;;;;;;8.11;100.00;99459.56;5006889;28;20647;-80
2023/10/25 07:02:16;;;;;;;12.47;8.43;;;;;;;8.14;100.00;99456.69;5004453;28;20290;-79
2023/10/25 07:04:47;;;;;;;10.73;8.77;;;;;;;8.16;100.00;99457.44;5006547;28;20233;-80
2023/10/25 07:07:16;;;;;;;12.07;9.27;;;;;;;8.18;100.00;99452.88;5006529;28;20195;-79
2023/10/25 07:09:43;;;;;;;13.03;9.40;;;;;;;8.19;100.00;99457.22;5001786;28;20683;-80
2023/10/25 07:12:10;;;;;;;12.70;9.47;;;;;;;8.23;100.00;99455.19;5007834;28;20210;-80
2023/10/25 07:14:36;;;;;;;10.70;8.17;;;;;;;8.25;100.00;99455.91;5004912;28;20227;-79
2023/10/25 07:17:03;;;;;;;11.03;8.37;;;;;;;8.28;100.00;99458.34;5017723;28;20232;-79
2023/10/25 07:19:29;;;;;;;13.43;9.00;;;;;;;8.29;100.00;99460.88;5007824;28;20215;-79
2023/10/25 07:21:57;;;;;;;11.37;9.37;;;;;;;8.31;100.00;99464.28;5012075;28;20207;-80
2023/10/25 07:24:24;;;;;;;11.77;8.73;;;;;;;8.36;100.00;99456.03;5000613;28;20227;-80
2023/10/25 07:26:50;;;;;;;11.73;8.20;;;;;;;8.40;100.00;99465.44;5001190;28;20211;-80
2023/10/25 07:29:16;;;;;;;11.27;8.60;;;;;;;8.43;100.00;99464.34;5006174;28;20199;-80
2023/10/25 07:31:43;;;;;;;10.17;8.47;;;;;;;8.45;100.00;99459.78;5008192;28;20203;-80
2023/10/25 07:34:09;;;;;;;11.07;8.20;;;;;;;8.50;100.00;99471.78;5010114;28;20336;-79
2023/10/25 07:36:36;;;;;;;9.83;8.83;;;;;;;8.57;100.00;99475.69;5014633;28;20315;-80
2023/10/25 07:39:04;;;;;;;11.20;9.13;;;;;;;8.64;100.00;99468.09;5005028;28;20219;-80
2023/10/25 07:41:30;;;;;;;11.00;9.17;;;;;;;8.67;100.00;99463.41;5004799;28;20214;-80
2023/10/25 07:43:58;;;;;;;10.50;8.53;;;;;;;8.74;100.00;99463.81;4999562;28;20231;-80
2023/10/25 07:46:24;;;;;;;10.13;8.30;;;;;;;8.80;100.00;99463.31;5002035;28;20208;-79
2023/10/25 07:48:50;;;;;;;15.60;7.80;;;;;;;8.88;100.00;99465.41;5005819;28;20234;-79
2023/10/25 07:51:17;;;;;;;9.50;8.50;;;;;;;8.95;100.00;99464.00;5006168;28;20215;-79
2023/10/25 07:53:43;;;;;;;10.83;7.37;;;;;;;9.02;100.00;99458.09;5005554;28;20231;-80
2023/10/25 07:56:11;;;;;;;9.23;8.27;;;;;;;9.11;100.00;99467.19;5004420;28;20214;-80
2023/10/25 07:58:38;;;;;;;10.73;8.57;;;;;;;9.21;100.00;99462.00;4996821;28;20222;-79
2023/10/25 08:01:04;;;;;;;9.37;7.80;;;;;;;9.22;100.00;99455.75;5008154;28;20822;-79
2023/10/25 08:03:31;;;;;;;9.23;8.10;;;;;;;9.27;100.00;99465.06;5014872;28;20253;-78
2023/10/25 08:05:57;;;;;;;8.77;7.07;;;;;;;9.32;100.00;99464.69;5011850;28;20207;-80
2023/10/25 08:08:24;;;;;;;9.30;7.70;;;;;;;9.37;100.00;99449.25;5006560;28;21431;-79
2023/10/25 08:10:59;;;;;;;11.10;7.83;;;;;;;9.41;100.00;99450.69;5010379;28;20755;-80
2023/10/25 08:13:27;;;;;;;10.23;7.83;;;;;;;9.46;100.00;99443.22;5001043;28;21007;-80
2023/10/25 08:15:56;;;;;;;9.00;7.60;;;;;;;9.54;100.00;99453.25;5006592;28;20207;-80
2023/10/25 08:18:23;;;;;;;8.87;7.00;;;;;;;9.65;100.00;99450.59;5005113;28;20223;-79
2023/10/25 08:20:49;;;;;;;8.60;7.37;;;;;;;9.75;100.00;99441.78;5008940;28;20203;-79
2023/10/25 08:23:16;;;;;;;7.20;6.13;;;;;;;9.89;100.00;99443.34;4999822;28;20212;-80
2023/10/25 08:25:43;;;;;;;6.90;6.13;;;;;;;9.98;100.00;99441.78;5006012;28;20220;-79
2023/10/25 08:28:09;;;;;;;6.43;5.77;;;;;;;10.06;100.00;99439.31;5004358;28;20218;-79
2023/10/25 08:30:37;;;;;;;9.07;6.13;;;;;;;10.14;100.00;99436.06;5009305;28;20221;-79
2023/10/25 08:33:03;;;;;;;6.20;5.60;;;;;;;10.22;100.00;99434.47;5003794;28;20214;-79
2023/10/25 08:35:30;;;;;;;6.93;5.77;;;;;;;10.28;100.00;99438.47;5014127;28;20222;-79
2023/10/25 08:37:57;;;;;;;7.43;5.67;;;;;;;10.36;100.00;99442.22;5002667;28;20224;-79
2023/10/25 08:40:25;;;;;;;6.43;5.70;;;;;;;10.48;100.00;99450.16;5003454;28;20234;-79
2023/10/25 08:42:51;;;;;;;5.47;4.97;;;;;;;10.54;100.00;99439.00;5000243;28;20213;-79
2023/10/25 08:45:19;;;;;;;6.33;5.17;;;;;;;10.60;100.00;99428.69;5001842;28;20269;-79
2023/10/25 08:47:47;;;;;;;9.70;5.77;;;;;;;10.68;100.00;99425.41;5003848;28;20234;-79
2023/10/25 08:50:19;;;;;;;5.90;5.07;;;;;;;10.78;100.00;99411.19;5008456;28;20206;-79
2023/10/25 08:52:48;;;;;;;7.13;4.90;;;;;;;10.85;100.00;99410.66;5006314;28;20223;-79
2023/10/25 08:55:14;;;;;;;5.90;4.60;;;;;;;10.94;100.00;99412.53;5006059;28;20231;-80
2023/10/25 08:57:41;;;;;;;7.77;4.33;;;;;;;10.99;99.42;99408.53;4997105;28;20229;-79
2023/10/25 09:00:09;;;;;;;5.03;4.43;;;;;;;11.08;98.16;99406.91;5005679;28;20211;-79
2023/10/25 09:02:37;;;;;;;5.17;4.60;;;;;;;11.13;98.55;99416.19;5003809;28;20270;-78
2023/10/25 09:05:06;;;;;;;5.33;3.83;;;;;;;11.23;98.75;99415.41;5003946;28;20314;-79
2023/10/25 09:07:35;;;;;;;4.13;3.73;;;;;;;11.35;97.23;99414.34;5002822;28;20203;-80
2023/10/25 09:10:03;;;;;;;6.00;3.83;;;;;;;11.41;95.98;99409.34;5006576;28;20205;-80
2023/10/25 09:12:30;;;;;;;4.17;3.70;;;;;;;11.52;94.51;99420.91;5000249;28;20208;-79
2023/10/25 09:14:57;;;;;;;4.90;3.93;;;;;;;11.57;94.60;99416.00;5005302;28;20235;-80
2023/10/25 09:17:23;;;;;;;4.43;3.63;;;;;;;11.62;94.68;99408.47;5000982;28;20607;-80
2023/10/25 09:19:51;;;;;;;4.23;3.03;;;;;;;11.73;92.21;99398.53;5003690;28;20213;-81
2023/10/25 09:22:25;;;;;;;5.53;3.97;;;;;;;11.77;90.79;99397.31;5019774;28;20211;-80
2023/10/25 09:24:54;;;;;;;4.47;3.80;;;;;;;11.80;90.19;99396.22;5004951;28;20230;-80
2023/10/25 09:27:21;;;;;;;6.73;4.93;;;;;;;11.85;90.97;99390.47;5005555;28;20685;-79
2023/10/25 09:29:48;;;;;;;5.53;3.90;;;;;;;11.85;89.16;99385.13;5004704;28;20229;-80
2023/10/25 09:32:15;;;;;;;5.83;4.30;;;;;;;11.84;89.01;99378.94;5011222;28;20937;-81
2023/10/25 09:34:42;;;;;;;5.53;3.73;;;;;;;11.82;89.06;99379.06;5012240;28;20231;-80
2023/10/25 09:37:08;;;;;;;7.27;4.43;;;;;;;11.78;89.01;99375.00;5016406;28;20242;-80
2023/10/25 09:39:37;;;;;;;6.10;4.17;;;;;;;11.75;89.18;99367.25;5010088;28;20212;-80
2023/10/25 09:42:09;;;;;;;7.90;4.10;;;;;;;11.76;90.11;99365.47;5003688;28;20216;-80
2023/10/25 09:44:45;;;;;;;4.17;3.70;;;;;;;11.77;90.27;99361.81;5017297;28;20230;-80
2023/10/25 09:47:12;;;;;;;7.97;3.87;;;;;;;11.84;90.60;99360.25;5012612;28;20350;-81
2023/10/25 09:49:44;;;;;;;5.10;3.13;;;;;;;11.89;90.37;99354.53;5020432;28;20227;-85
2023/10/25 09:52:17;;;;;;;5.53;3.43;;;;;;;11.94;90.98;99363.81;5007249;28;20215;-83
2023/10/25 09:54:49;;;;;;;6.20;3.83;;;;;;;11.98;90.29;99359.06;5008157;28;20219;-82
2023/10/25 09:57:16;;;;;;;4.43;3.43;;;;;;;12.02;89.09;99358.63;5018357;28;20224;-80
2023/10/25 09:59:44;;;;;;;6.17;3.30;;;;;;;12.06;89.87;99352.03;5001917;28;20667;-81
2023/10/25 10:02:16;;;;;;;8.13;3.70;;;;;;;12.09;89.92;99353.59;5018321;28;20264;-82
2023/10/25 10:04:50;;;;;;;5.40;3.50;;;;;;;12.13;89.67;99347.00;5008446;28;20223;-81
2023/10/25 10:07:34;;;;;;;4.53;3.80;;;;;;;12.16;89.49;99342.22;5002864;28;20211;-81
2023/10/25 10:10:12;;;;;;;3.93;3.27;;;;;;;12.18;88.35;99338.59;5005777;28;20212;-82
2023/10/25 10:12:38;;;;;;;4.27;3.20;;;;;;;12.18;87.80;99340.25;5007447;28;20252;-81
2023/10/25 10:15:05;;;;;;;4.07;3.57;;;;;;;12.18;88.39;99337.56;5003310;28;20228;-82
2023/10/25 10:17:35;;;;;;;3.73;3.40;;;;;;;12.18;86.99;99328.75;5006181;28;20274;-81
2023/10/25 10:20:05;;;;;;;3.40;3.00;;;;;;;12.16;87.16;99331.56;5012736;28;20684;-80
2023/10/25 10:22:31;;;;;;;4.63;3.27;;;;;;;12.18;87.63;99328.75;5006218;28;20203;-80
2023/10/25 10:25:00;;;;;;;5.83;3.20;;;;;;;12.18;87.71;99324.22;5005928;28;20230;-81
2023/10/25 10:28:01;;;;;;;5.23;3.30;;;;;;;12.19;87.00;99319.72;5006176;28;20207;-80
2023/10/25 10:30:34;;;;;;;3.93;2.90;;;;;;;12.17;86.45;99313.72;5006292;28;20582;-82
2023/10/25 10:33:02;;;;;;;4.03;3.50;;;;;;;12.12;85.77;99323.97;5004451;28;20207;-80
2023/10/25 10:35:29;;;;;;;4.47;2.83;;;;;;;12.10;85.95;99318.75;5007584;28;20214;-82
2023/10/25 10:37:56;;;;;;;4.00;3.30;;;;;;;12.08;87.01;99311.88;5000325;28;20286;-81
2023/10/25 10:40:23;;;;;;;3.90;2.90;;;;;;;12.09;87.37;99316.22;5008030;28;20246;-80
2023/10/25 10:42:51;;;;;;;4.27;2.90;;;;;;;12.11;87.31;99312.44;5008589;28;20226;-80
2023/10/25 10:45:19;;;;;;;3.80;2.60;;;;;;;12.14;88.00;99305.97;5009566;28;20239;-81
2023/10/25 10:47:52;;;;;;;4.57;2.53;;;;;;;12.19;87.46;99306.38;5001655;28;20323;-81
2023/10/25 10:50:21;;;;;;;4.43;2.33;;;;;;;12.23;86.96;99301.63;5010997;28;20197;-80
2023/10/25 10:52:49;;;;;;;3.20;2.53;;;;;;;12.23;86.21;99299.78;5009489;28;20211;-81
2023/10/25 10:55:18;;;;;;;5.37;2.63;;;;;;;12.24;86.07;99295.28;5000865;28;20227;-80
2023/10/25 10:57:45;;;;;;;3.03;2.50;;;;;;;12.26;86.77;99290.66;5013995;28;20227;-79
2023/10/25 11:00:16;;;;;;;3.10;2.37;;;;;;;12.32;85.70;99288.28;5001301;28;20208;-82
2023/10/25 11:02:45;;;;;;;3.20;2.47;;;;;;;12.35;85.64;99287.16;5003188;28;20290;-78
2023/10/25 11:05:14;;;;;;;2.27;1.83;;;;;;;12.40;86.13;99283.06;5008097;28;20604;-79
2023/10/25 11:07:41;;;;;;;3.90;2.40;;;;;;;12.45;85.46;99282.66;5002488;28;20211;-79
2023/10/25 11:10:08;;;;;;;2.50;2.10;;;;;;;12.49;85.06;99279.56;5005400;28;20208;-79
2023/10/25 11:12:35;;;;;;;4.47;2.17;;;;;;;12.52;84.67;99284.63;4996787;28;20255;-80
2023/10/25 11:15:03;;;;;;;3.23;1.93;;;;;;;12.51;84.90;99269.59;5004991;28;20243;-79
2023/10/25 11:17:31;;;;;;;3.40;1.97;;;;;;;12.54;84.24;99260.41;5002091;28;20293;-79
2023/10/25 11:19:59;;;;;;;3.03;2.07;;;;;;;12.58;85.05;99250.28;5001533;28;20200;-79
2023/10/25 11:22:26;;;;;;;2.90;2.30;;;;;;;12.63;84.83;99240.03;4999221;28;20690;-80
2023/10/25 11:24:53;;;;;;;3.40;2.00;;;;;;;12.69;84.68;99234.13;5007645;28;20230;-79
2023/10/25 11:27:20;;;;;;;2.70;2.00;;;;;;;12.77;83.51;99236.88;5004780;28;20204;-80
2023/10/25 11:29:48;;;;;;;3.30;2.00;;;;;;;12.82;83.50;99231.97;5000020;28;20200;-79
2023/10/25 11:32:15;;;;;;;4.33;2.17;;;;;;;12.87;83.10;99237.72;5014965;28;20238;-79
2023/10/25 11:34:46;;;;;;;2.20;2.00;;;;;;;12.91;82.71;99241.75;5000949;28;20219;-77